createdAt,value
2019-05-10T00:01:59.162Z,69.94
2019-05-10T00:05:21.330Z,69.98
2019-05-10T00:08:43.975Z,69.89
2019-05-10T00:12:05.979Z,69.87
2019-05-10T00:15:11.474Z,69.96
2019-05-10T00:18:15.664Z,69.93
2019-05-10T00:21:20.190Z,69.99
2019-05-10T00:24:24.869Z,69.96
2019-05-10T00:27:29.292Z,69.80
2019-05-10T00:30:33.613Z,69.75
2019-05-10T00:33:37.697Z,69.73
2019-05-10T00:36:41.866Z,69.78
2019-05-10T00:39:46.039Z,69.76
2019-05-10T00:42:49.864Z,69.90
2019-05-10T00:45:53.976Z,70.10
2019-05-10T00:48:58.217Z,70.45
2019-05-10T00:52:02.297Z,70.75
2019-05-10T00:55:18.376Z,70.87
2019-05-10T00:58:12.579Z,70.81
2019-05-10T01:01:18.656Z,70.70
2019-05-10T01:04:22.364Z,70.64
2019-05-10T01:07:26.452Z,70.69
2019-05-10T01:10:30.373Z,70.59
2019-05-10T01:13:34.646Z,70.56
2019-05-10T01:16:38.967Z,70.54
2019-05-10T01:19:43.595Z,70.61
2019-05-10T01:22:47.615Z,70.57
2019-05-10T01:25:52.006Z,70.53
2019-05-10T01:28:56.701Z,70.45
2019-05-10T01:32:00.713Z,70.46
2019-05-10T01:35:04.820Z,70.41
2019-05-10T01:38:09.583Z,70.51
2019-05-10T01:41:13.506Z,70.56
2019-05-10T01:44:17.581Z,70.92
2019-05-10T01:47:21.515Z,71.34
2019-05-10T01:50:25.898Z,71.64
2019-05-10T01:53:30.012Z,71.71
2019-05-10T01:56:34.264Z,71.60
2019-05-10T01:59:38.099Z,71.74
2019-05-10T02:02:42.329Z,71.69
2019-05-10T02:05:46.570Z,71.59
2019-05-10T02:08:50.496Z,71.39
2019-05-10T02:11:54.811Z,71.20
2019-05-10T02:14:58.962Z,71.09
2019-05-10T02:18:03.228Z,70.92
2019-05-10T02:21:07.231Z,70.95
2019-05-10T02:24:11.467Z,70.78
2019-05-10T02:27:15.382Z,70.64
2019-05-10T02:30:19.581Z,70.64
2019-05-10T02:33:23.451Z,70.68
2019-05-10T02:36:28.038Z,70.79
2019-05-10T02:39:32.299Z,70.73
2019-05-10T02:42:36.666Z,70.66
2019-05-10T02:45:40.856Z,70.60
2019-05-10T02:48:44.841Z,70.62
2019-05-10T02:51:48.757Z,70.66
2019-05-10T02:54:53.062Z,70.65
2019-05-10T02:57:57.301Z,70.72
2019-05-10T03:01:03.871Z,70.71
2019-05-10T03:04:08.676Z,70.80
2019-05-10T03:07:12.608Z,71.05
2019-05-10T03:10:16.897Z,71.29
2019-05-10T03:13:27.101Z,71.62
2019-05-10T03:16:32.393Z,71.78
2019-05-10T03:19:37.213Z,71.85
2019-05-10T03:22:44.361Z,71.90
2019-05-10T03:25:48.725Z,71.94
2019-05-10T03:28:52.973Z,71.77
2019-05-10T03:31:57.483Z,71.72
2019-05-10T03:35:01.816Z,71.87
2019-05-10T03:38:05.791Z,71.96
2019-05-10T03:41:10.035Z,72.14
2019-05-10T03:44:13.947Z,72.23
2019-05-10T03:47:17.850Z,72.48
2019-05-10T03:50:22.011Z,72.72
2019-05-10T03:53:25.990Z,73.01
2019-05-10T03:56:30.444Z,73.17
2019-05-10T03:59:34.284Z,73.18
2019-05-10T04:02:39.045Z,73.32
2019-05-10T04:05:43.522Z,73.53
2019-05-10T04:08:47.696Z,73.75
2019-05-10T04:11:51.646Z,73.83
2019-05-10T04:14:55.950Z,73.76
2019-05-10T04:17:59.858Z,73.76
2019-05-10T04:21:03.848Z,73.62
2019-05-10T04:24:07.692Z,73.43
2019-05-10T04:27:29.522Z,73.08
2019-05-10T04:30:17.987Z,72.88
2019-05-10T04:33:22.164Z,72.66
2019-05-10T04:36:26.400Z,72.51
2019-05-10T04:39:30.509Z,72.24
2019-05-10T04:42:35.048Z,72.10
2019-05-10T04:45:39.209Z,72.02
2019-05-10T04:48:43.049Z,71.99
2019-05-10T04:51:47.329Z,71.94
2019-05-10T04:54:51.421Z,71.79
2019-05-10T04:57:55.787Z,71.50
2019-05-10T05:01:00.120Z,70.91
2019-05-10T05:04:04.115Z,70.18
2019-05-10T05:07:08.288Z,69.55
2019-05-10T05:10:12.960Z,69.01
2019-05-10T05:13:16.940Z,68.10
2019-05-10T05:16:20.788Z,67.84
2019-05-10T05:19:24.780Z,67.80
2019-05-10T05:22:28.691Z,67.58
2019-05-10T05:25:35.315Z,67.39
2019-05-10T05:28:39.779Z,67.67
2019-05-10T05:31:44.058Z,67.81
2019-05-10T05:34:48.312Z,67.99
2019-05-10T05:37:52.859Z,68.22
2019-05-10T05:40:57.305Z,68.44
2019-05-10T05:44:01.539Z,66.21
2019-05-10T05:47:05.959Z,60.45
2019-05-10T05:50:10.440Z,56.34
2019-05-10T05:53:15.022Z,53.47
2019-05-10T05:56:19.448Z,51.73
2019-05-10T05:59:26.148Z,50.02
2019-05-10T06:02:29.799Z,48.70
2019-05-10T06:05:37.094Z,48.16
2019-05-10T06:08:39.833Z,47.54
2019-05-10T06:11:43.994Z,46.94
2019-05-10T06:14:49.907Z,46.04
2019-05-10T06:17:57.213Z,45.36
2019-05-10T06:21:00.386Z,44.22
2019-05-10T06:24:07.490Z,43.66
2019-05-10T06:27:10.352Z,44.71
2019-05-10T06:30:14.555Z,44.64
2019-05-10T06:33:18.488Z,44.02
2019-05-10T06:36:22.363Z,44.52
2019-05-10T06:39:27.184Z,43.49
2019-05-10T06:42:34.627Z,42.52
2019-05-10T06:45:37.350Z,41.98
2019-05-10T06:48:41.745Z,41.09
2019-05-10T06:51:49.173Z,40.79
2019-05-10T06:54:52.472Z,41.69
2019-05-10T06:58:00.459Z,41.83
2019-05-10T07:01:02.593Z,42.78
2019-05-10T07:04:06.530Z,43.20
2019-05-10T07:07:22.124Z,42.69
2019-05-10T07:10:19.446Z,42.94
2019-05-10T07:13:22.792Z,43.95
2019-05-10T07:16:26.726Z,45.09
2019-05-10T07:19:34.958Z,45.36
2019-05-10T07:22:36.609Z,46.45
2019-05-10T07:25:43.662Z,44.89
2019-05-10T07:28:51.615Z,44.69
2019-05-10T07:31:53.192Z,43.90
2019-05-10T07:35:00.830Z,42.70
2019-05-10T07:38:03.684Z,44.20
2019-05-10T07:41:07.737Z,45.36
2019-05-10T07:44:12.190Z,42.68
2019-05-10T07:47:16.512Z,43.89
2019-05-10T07:50:20.750Z,42.12
2019-05-10T07:53:25.238Z,40.58
2019-05-10T07:56:29.527Z,40.18
2019-05-10T07:59:49.682Z,41.67
2019-05-10T08:02:44.548Z,40.69
2019-05-10T08:05:46.160Z,41.72
2019-05-10T08:08:55.369Z,41.20
2019-05-10T08:12:03.313Z,41.98
2019-05-10T08:15:03.489Z,42.24
2019-05-10T08:18:09.659Z,42.64
2019-05-10T08:21:21.704Z,42.70
2019-05-10T08:24:22.035Z,42.93
2019-05-10T08:27:25.731Z,43.11
2019-05-10T08:30:58.773Z,43.44
2019-05-10T08:34:02.184Z,43.61
2019-05-10T08:37:06.297Z,43.88
2019-05-10T08:40:12.797Z,43.87
2019-05-10T08:43:16.955Z,43.38
2019-05-10T08:46:28.720Z,43.07
2019-05-10T08:49:35.789Z,42.54
2019-05-10T08:52:34.017Z,42.67
2019-05-10T08:55:37.936Z,42.83
2019-05-10T08:58:59.999Z,42.17
2019-05-10T09:02:04.276Z,42.04
2019-05-10T09:05:08.612Z,41.97
2019-05-10T09:08:19.677Z,41.73
2019-05-10T09:11:18.662Z,41.72
2019-05-10T09:14:24.140Z,41.41
2019-05-10T09:17:28.604Z,41.66
2019-05-10T09:20:33.193Z,41.58
2019-05-10T09:23:37.526Z,41.47
2019-05-10T09:26:41.935Z,41.08
2019-05-10T09:29:46.560Z,40.50
2019-05-10T09:32:52.049Z,40.72
2019-05-10T09:35:59.382Z,40.47
2019-05-10T09:39:09.178Z,40.07
2019-05-10T09:42:25.106Z,40.36
2019-05-10T09:45:16.980Z,40.54
2019-05-10T09:48:22.834Z,40.55
2019-05-10T09:51:30.208Z,40.88
2019-05-10T09:54:33.674Z,40.14
2019-05-10T09:57:38.160Z,40.38
2019-05-10T10:00:42.510Z,39.87
2019-05-10T10:03:47.710Z,38.83
2019-05-10T10:06:52.906Z,38.64
2019-05-10T10:09:57.159Z,38.88
2019-05-10T10:13:08.515Z,39.08
2019-05-10T10:16:12.666Z,39.70
2019-05-10T10:19:12.638Z,39.73
2019-05-10T10:22:17.441Z,39.85
2019-05-10T10:25:26.890Z,40.08
2019-05-10T10:28:29.767Z,39.45
2019-05-10T10:31:48.387Z,38.53
2019-05-10T10:34:43.016Z,38.28
2019-05-10T10:37:47.556Z,38.60
2019-05-10T10:40:51.955Z,38.98
2019-05-10T10:43:58.143Z,39.34
2019-05-10T10:47:02.257Z,39.24
2019-05-10T10:50:11.532Z,39.29
2019-05-10T10:53:13.489Z,39.04
2019-05-10T10:56:17.787Z,38.45
2019-05-10T10:59:21.724Z,37.86
2019-05-10T11:02:32.638Z,37.72
2019-05-10T11:05:32.083Z,37.41
2019-05-10T11:08:35.997Z,38.08
2019-05-10T11:11:44.328Z,38.47
2019-05-10T11:14:46.100Z,38.60
2019-05-10T11:17:50.672Z,38.90
2019-05-10T11:20:54.923Z,39.24
2019-05-10T11:24:01.426Z,39.05
2019-05-10T11:27:07.224Z,38.90
2019-05-10T11:30:12.335Z,38.90
2019-05-10T11:33:29.199Z,39.13
2019-05-10T11:36:22.504Z,39.29
2019-05-10T11:39:27.007Z,38.76
2019-05-10T11:42:31.390Z,39.63
2019-05-10T11:45:36.799Z,38.40
2019-05-10T11:48:42.183Z,37.95
2019-05-10T11:51:47.896Z,37.03
2019-05-10T11:54:52.087Z,36.63
2019-05-10T11:58:03.031Z,36.59
2019-05-10T12:01:12.927Z,36.12
2019-05-10T12:04:12.990Z,35.96
2019-05-10T12:07:13.944Z,33.67
2019-05-10T12:10:24.764Z,33.67
2019-05-10T12:13:25.207Z,33.47
2019-05-10T12:16:33.436Z,33.32
2019-05-10T12:19:44.453Z,34.61
2019-05-10T12:22:47.209Z,35.59
2019-05-10T12:26:20.397Z,36.30
2019-05-10T12:28:54.105Z,36.45
2019-05-10T12:31:58.465Z,36.14
2019-05-10T12:35:02.781Z,36.02
2019-05-10T12:38:06.816Z,35.88
2019-05-10T12:41:11.374Z,35.82
2019-05-10T12:44:15.528Z,35.57
2019-05-10T12:47:21.419Z,35.36
2019-05-10T12:50:25.979Z,35.08
2019-05-10T12:53:31.556Z,34.93
2019-05-10T12:56:43.728Z,34.44
2019-05-10T12:59:42.263Z,34.46
2019-05-10T13:02:51.330Z,33.81
2019-05-10T13:05:53.641Z,33.07
2019-05-10T13:08:57.835Z,33.28
2019-05-10T13:12:03.864Z,33.30
2019-05-10T13:15:08.267Z,33.44
2019-05-10T13:18:12.105Z,33.12
2019-05-10T13:21:20.830Z,32.84
2019-05-10T13:24:22.314Z,32.12
2019-05-10T13:27:26.664Z,32.32
2019-05-10T13:30:30.654Z,32.76
2019-05-10T13:33:40.704Z,33.12
2019-05-10T13:36:40.316Z,33.16
2019-05-10T13:39:44.304Z,33.18
2019-05-10T13:42:48.436Z,33.32
2019-05-10T13:45:52.735Z,33.37
2019-05-10T13:48:56.655Z,33.69
2019-05-10T13:52:01.351Z,33.63
2019-05-10T13:55:05.627Z,33.28
2019-05-10T13:58:09.922Z,33.23
2019-05-10T14:01:14.887Z,32.83
2019-05-10T14:04:22.894Z,32.66
2019-05-10T14:07:25.208Z,32.42
2019-05-10T14:10:29.346Z,32.26
2019-05-10T14:13:35.770Z,31.88
2019-05-10T14:16:39.058Z,31.65
2019-05-10T14:19:43.219Z,31.62
2019-05-10T14:22:55.323Z,31.52
2019-05-10T14:25:53.207Z,31.45
2019-05-10T14:28:57.131Z,31.59
2019-05-10T14:32:02.254Z,32.06
2019-05-10T14:35:07.151Z,32.03
2019-05-10T14:38:12.026Z,32.47
2019-05-10T14:41:16.137Z,33.34
2019-05-10T14:44:20.319Z,33.91
2019-05-10T14:47:24.481Z,34.45
2019-05-10T14:50:28.708Z,34.09
2019-05-10T14:53:32.599Z,33.19
2019-05-10T14:56:36.541Z,32.66
2019-05-10T14:59:41.056Z,32.88
2019-05-10T15:02:45.007Z,32.92
2019-05-10T15:05:54.972Z,32.85
2019-05-10T15:08:55.665Z,33.01
2019-05-10T15:12:00.189Z,32.81
2019-05-10T15:15:04.715Z,32.91
2019-05-10T15:18:09.258Z,32.88
2019-05-10T15:21:13.464Z,32.68
2019-05-10T15:24:17.684Z,32.71
2019-05-10T15:27:23.902Z,32.90
2019-05-10T15:30:27.728Z,32.81
2019-05-10T15:33:32.291Z,32.78
2019-05-10T15:36:36.495Z,33.24
2019-05-10T15:39:41.035Z,33.26
2019-05-10T15:42:45.088Z,33.12
2019-05-10T15:45:52.436Z,33.11
2019-05-10T15:48:55.248Z,33.25
2019-05-10T15:52:16.318Z,33.83
2019-05-10T15:55:05.321Z,33.73
2019-05-10T15:58:10.944Z,33.15
2019-05-10T16:01:26.009Z,33.68
2019-05-10T16:04:21.409Z,34.17
2019-05-10T16:07:25.817Z,34.16
2019-05-10T16:10:38.886Z,34.18
2019-05-10T16:13:35.489Z,34.61
2019-05-10T16:16:39.945Z,34.67
2019-05-10T16:19:44.708Z,34.69
2019-05-10T16:22:48.968Z,36.07
2019-05-10T16:25:53.261Z,37.38
2019-05-10T16:29:01.836Z,38.20
2019-05-10T16:32:03.467Z,38.16
2019-05-10T16:35:12.541Z,38.18
2019-05-10T16:38:13.918Z,38.65
2019-05-10T16:41:17.911Z,39.41
2019-05-10T16:44:22.161Z,39.88
2019-05-10T16:47:26.378Z,39.96
2019-05-10T16:50:31.728Z,40.34
2019-05-10T16:53:37.857Z,40.32
2019-05-10T16:56:42.514Z,40.53
2019-05-10T16:59:47.743Z,41.08
2019-05-10T17:02:51.889Z,41.50
2019-05-10T17:05:58.819Z,41.99
2019-05-10T17:09:02.430Z,42.39
2019-05-10T17:12:06.736Z,42.77
2019-05-10T17:15:11.434Z,43.04
2019-05-10T17:18:19.694Z,43.30
2019-05-10T17:21:21.603Z,43.82
2019-05-10T17:24:25.810Z,44.37
2019-05-10T17:27:29.746Z,44.57
2019-05-10T17:30:33.911Z,44.57
2019-05-10T17:33:42.484Z,44.89
2019-05-10T17:36:44.154Z,45.11
2019-05-10T17:39:48.023Z,45.29
2019-05-10T17:42:51.950Z,45.47
2019-05-10T17:45:56.541Z,45.71
2019-05-10T17:49:00.821Z,45.99
2019-05-10T17:52:05.153Z,46.12
2019-05-10T17:55:16.001Z,46.29
2019-05-10T17:58:17.178Z,46.44
2019-05-10T18:01:21.650Z,46.38
2019-05-10T18:04:26.119Z,46.28
2019-05-10T18:07:30.751Z,46.34
2019-05-10T18:10:34.887Z,46.52
2019-05-10T18:13:40.984Z,47.37
2019-05-10T18:16:48.042Z,47.37
2019-05-10T18:19:51.419Z,47.56
2019-05-10T18:22:55.422Z,47.78
2019-05-10T18:26:00.337Z,48.09
2019-05-10T18:29:04.575Z,49.02
2019-05-10T18:32:11.045Z,49.25
2019-05-10T18:35:16.774Z,49.67
2019-05-10T18:38:20.592Z,50.10
2019-05-10T18:41:24.965Z,50.92
2019-05-10T18:44:29.192Z,51.43
2019-05-10T18:47:33.413Z,51.99
2019-05-10T18:50:39.736Z,52.43
2019-05-10T18:53:43.259Z,52.74
2019-05-10T18:56:47.652Z,53.06
2019-05-10T18:59:51.526Z,53.30
2019-05-10T19:02:57.145Z,53.70
2019-05-10T19:06:03.934Z,54.25
2019-05-10T19:09:07.711Z,54.47
2019-05-10T19:12:18.417Z,54.96
2019-05-10T19:15:18.376Z,55.37
2019-05-10T19:18:23.235Z,55.50
2019-05-10T19:21:30.676Z,55.65
2019-05-10T19:24:34.496Z,55.58
2019-05-10T19:27:44.109Z,55.87
2019-05-10T19:30:45.495Z,56.08
2019-05-10T19:33:49.507Z,56.36
2019-05-10T19:36:54.022Z,56.76
2019-05-10T19:39:57.916Z,57.09
2019-05-10T19:43:02.566Z,57.26
2019-05-10T19:46:07.912Z,57.57
2019-05-10T19:49:13.361Z,58.10
2019-05-10T19:52:21.257Z,58.39
2019-05-10T19:55:23.150Z,59.04
2019-05-10T19:58:32.115Z,59.40
2019-05-10T20:01:33.910Z,59.69
2019-05-10T20:04:37.775Z,59.72
2019-05-10T20:07:45.705Z,59.67
2019-05-10T20:10:48.183Z,59.55
2019-05-10T20:13:52.040Z,59.24
2019-05-10T20:16:56.465Z,58.94
2019-05-10T20:20:00.519Z,59.02
2019-05-10T20:23:05.135Z,58.90
2019-05-10T20:26:09.046Z,58.75
2019-05-10T20:29:13.441Z,58.70
2019-05-10T20:32:17.812Z,58.73
2019-05-10T20:35:22.192Z,58.89
2019-05-10T20:38:26.416Z,59.14
2019-05-10T20:41:31.084Z,59.12
2019-05-10T20:44:35.262Z,59.29
2019-05-10T20:47:39.477Z,59.58
2019-05-10T20:50:43.610Z,59.83
2019-05-10T20:53:48.329Z,60.12
2019-05-10T20:56:53.072Z,60.39
2019-05-10T20:59:56.904Z,61.01
2019-05-10T21:03:00.743Z,61.78
2019-05-10T21:06:04.741Z,62.12
2019-05-10T21:09:08.723Z,62.15
2019-05-10T21:12:13.465Z,62.20
2019-05-10T21:15:17.381Z,62.04
2019-05-10T21:18:21.712Z,61.96
2019-05-10T21:21:26.208Z,61.93
2019-05-10T21:24:30.355Z,61.99
2019-05-10T21:27:34.202Z,61.92
2019-05-10T21:30:38.137Z,61.87
2019-05-10T21:33:42.552Z,61.80
2019-05-10T21:36:47.109Z,61.71
2019-05-10T21:39:51.030Z,61.74
2019-05-10T21:42:55.573Z,62.18
2019-05-10T21:46:00.103Z,62.54
2019-05-10T21:49:04.101Z,62.93
2019-05-10T21:52:08.279Z,63.21
2019-05-10T21:55:12.254Z,63.07
2019-05-10T21:58:16.237Z,62.80
2019-05-10T22:01:20.463Z,62.55
2019-05-10T22:04:24.499Z,62.58
2019-05-10T22:07:28.543Z,62.45
2019-05-10T22:10:32.748Z,62.48
2019-05-10T22:13:36.966Z,62.69
2019-05-10T22:16:41.599Z,63.11
2019-05-10T22:19:46.122Z,63.78
2019-05-10T22:22:50.563Z,64.21
2019-05-10T22:25:54.577Z,64.62
2019-05-10T22:28:58.783Z,65.18
2019-05-10T22:32:03.162Z,65.98
2019-05-10T22:35:07.361Z,67.91
2019-05-10T22:38:11.575Z,69.54
2019-05-10T22:41:16.124Z,69.42
2019-05-10T22:44:20.239Z,69.36
2019-05-10T22:47:25.499Z,69.55
2019-05-10T22:50:29.983Z,69.44
2019-05-10T22:53:33.973Z,69.27
2019-05-10T22:56:37.859Z,69.33
2019-05-10T22:59:41.735Z,69.57
2019-05-10T23:02:45.697Z,69.76
2019-05-10T23:05:50.165Z,69.57
2019-05-10T23:08:54.775Z,69.56
2019-05-10T23:11:58.734Z,69.71
2019-05-10T23:15:02.692Z,69.74
2019-05-10T23:18:06.930Z,70.90
2019-05-10T23:21:11.430Z,71.37
2019-05-10T23:24:17.720Z,71.33
2019-05-10T23:27:21.945Z,71.59
2019-05-10T23:30:25.883Z,72.27
2019-05-10T23:33:30.079Z,72.59
2019-05-10T23:36:34.375Z,72.25
2019-05-10T23:39:41.190Z,72.11
2019-05-10T23:42:44.658Z,72.51
2019-05-10T23:45:48.686Z,72.21
2019-05-10T23:48:52.656Z,72.26
2019-05-10T23:51:57.139Z,72.15
2019-05-10T23:55:01.346Z,72.32
2019-05-10T23:58:05.640Z,72.15
